createdAt,value
2023-08-13T00:00:25.255Z,1017.93
2023-08-13T00:01:25.402Z,1017.91
2023-08-13T00:02:25.608Z,1017.98
2023-08-13T00:03:25.791Z,1017.99
2023-08-13T00:04:25.926Z,1017.94
2023-08-13T00:05:26.091Z,1017.99
2023-08-13T00:06:26.232Z,1017.99
2023-08-13T00:07:26.389Z,1018.04
2023-08-13T00:08:26.598Z,1018.00
2023-08-13T00:09:26.765Z,1018.00
2023-08-13T00:10:26.941Z,1017.96
2023-08-13T00:11:27.096Z,1018.01
2023-08-13T00:12:27.268Z,1017.99
2023-08-13T00:13:27.424Z,1017.98
2023-08-13T00:14:27.633Z,1018.00
2023-08-13T00:15:27.814Z,1018.04
2023-08-13T00:16:27.985Z,1018.03
2023-08-13T00:17:28.170Z,1017.97
2023-08-13T00:18:28.320Z,1017.95
2023-08-13T00:19:28.570Z,1018.00
2023-08-13T00:20:28.664Z,1017.98
2023-08-13T00:21:28.848Z,1017.99
2023-08-13T00:22:29.080Z,1018.03
2023-08-13T00:23:29.238Z,1018.02
2023-08-13T00:24:29.880Z,1018.07
2023-08-13T00:25:29.556Z,1018.06
2023-08-13T00:26:29.732Z,1018.07
2023-08-13T00:27:30.166Z,1018.10
2023-08-13T00:28:30.083Z,1018.07
2023-08-13T00:29:30.271Z,1018.07
2023-08-13T00:30:30.461Z,1018.06
2023-08-13T00:31:30.630Z,1018.04
2023-08-13T00:32:30.808Z,1018.00
2023-08-13T00:33:31.960Z,1018.08
2023-08-13T00:34:31.128Z,1018.05
2023-08-13T00:35:31.283Z,1018.08
2023-08-13T00:36:31.445Z,1018.05
2023-08-13T00:37:31.647Z,1018.06
2023-08-13T00:38:31.856Z,1018.07
2023-08-13T00:39:32.078Z,1018.09
2023-08-13T00:40:32.170Z,1018.09
2023-08-13T00:41:32.340Z,1018.15
2023-08-13T00:42:32.541Z,1018.21
2023-08-13T00:43:32.672Z,1018.22
2023-08-13T00:44:32.882Z,1018.26
2023-08-13T00:45:33.024Z,1018.31
2023-08-13T00:46:33.184Z,1018.26
2023-08-13T00:47:33.450Z,1018.28
2023-08-13T00:48:33.536Z,1018.25
2023-08-13T00:49:33.713Z,1018.29
2023-08-13T00:50:33.938Z,1018.32
2023-08-13T00:51:34.060Z,1018.34
2023-08-13T00:52:34.254Z,1018.38
2023-08-13T00:53:34.409Z,1018.37
2023-08-13T00:54:34.590Z,1018.43
2023-08-13T00:55:34.768Z,1018.42
2023-08-13T00:56:34.970Z,1018.44
2023-08-13T00:57:35.116Z,1018.44
2023-08-13T00:58:35.287Z,1018.45
2023-08-13T00:59:35.466Z,1018.49
2023-08-13T01:00:35.639Z,1018.44
2023-08-13T01:01:35.940Z,1018.44
2023-08-13T01:02:36.020Z,1018.45
2023-08-13T01:03:36.183Z,1018.46
2023-08-13T01:04:36.353Z,1018.47
2023-08-13T01:05:36.553Z,1018.46
2023-08-13T01:06:36.742Z,1018.46
2023-08-13T01:07:36.863Z,1018.47
2023-08-13T01:08:37.036Z,1018.54
2023-08-13T01:09:37.207Z,1018.49
2023-08-13T01:10:37.423Z,1018.51
2023-08-13T01:11:37.577Z,1018.57
2023-08-13T01:12:37.758Z,1018.61
2023-08-13T01:13:37.942Z,1018.56
2023-08-13T01:14:38.109Z,1018.60
2023-08-13T01:15:38.301Z,1018.61
2023-08-13T01:16:38.472Z,1018.60
2023-08-13T01:17:38.672Z,1018.59
2023-08-13T01:18:38.831Z,1018.57
2023-08-13T01:19:39.056Z,1018.57
2023-08-13T01:20:39.200Z,1018.55
2023-08-13T01:21:39.365Z,1018.59
2023-08-13T01:22:39.560Z,1018.58
2023-08-13T01:23:39.707Z,1018.60
2023-08-13T01:24:39.893Z,1018.59
2023-08-13T01:25:40.060Z,1018.64
2023-08-13T01:26:40.243Z,1018.63
2023-08-13T01:27:40.464Z,1018.64
2023-08-13T01:28:40.612Z,1018.61
2023-08-13T01:29:40.810Z,1018.64
2023-08-13T01:30:40.975Z,1018.64
2023-08-13T01:31:41.164Z,1018.58
2023-08-13T01:32:41.394Z,1018.53
2023-08-13T01:33:41.568Z,1018.57
2023-08-13T01:34:41.670Z,1018.58
2023-08-13T01:35:41.850Z,1018.58
2023-08-13T01:36:42.023Z,1018.61
2023-08-13T01:37:42.192Z,1018.65
2023-08-13T01:38:42.392Z,1018.61
2023-08-13T01:39:42.544Z,1018.66
2023-08-13T01:40:42.708Z,1018.70
2023-08-13T01:41:42.866Z,1018.69
2023-08-13T01:42:43.049Z,1018.68
2023-08-13T01:43:43.244Z,1018.69
2023-08-13T01:44:43.428Z,1018.67
2023-08-13T01:45:43.586Z,1018.68
2023-08-13T01:46:43.736Z,1018.69
2023-08-13T01:47:43.967Z,1018.69
2023-08-13T01:48:44.128Z,1018.74
2023-08-13T01:49:44.250Z,1018.78
2023-08-13T01:50:44.430Z,1018.76
2023-08-13T01:51:44.634Z,1018.78
2023-08-13T01:52:44.802Z,1018.76
2023-08-13T01:53:44.926Z,1018.77
2023-08-13T01:54:45.090Z,1018.78
2023-08-13T01:55:45.268Z,1018.80
2023-08-13T01:56:45.459Z,1018.79
2023-08-13T01:57:45.638Z,1018.78
2023-08-13T01:58:49.694Z,1018.77
2023-08-13T01:59:46.008Z,1018.77
2023-08-13T02:00:46.214Z,1018.77
2023-08-13T02:01:46.369Z,1018.79
2023-08-13T02:02:46.539Z,1018.80
2023-08-13T02:03:46.696Z,1018.79
2023-08-13T02:04:46.898Z,1018.82
2023-08-13T02:05:47.044Z,1018.86
2023-08-13T02:06:47.239Z,1018.87
2023-08-13T02:07:47.397Z,1018.86
2023-08-13T02:09:08.563Z,1018.88
2023-08-13T02:09:47.747Z,1018.87
2023-08-13T02:10:47.928Z,1018.87
2023-08-13T02:11:48.125Z,1018.89
2023-08-13T02:12:48.277Z,1018.96
2023-08-13T02:13:48.518Z,1018.97
2023-08-13T02:14:48.619Z,1018.95
2023-08-13T02:15:48.824Z,1018.96
2023-08-13T02:16:49.020Z,1019.04
2023-08-13T02:17:49.207Z,1018.99
2023-08-13T02:18:49.334Z,1018.98
2023-08-13T02:19:49.528Z,1018.99
2023-08-13T02:20:49.702Z,1018.98
2023-08-13T02:21:49.860Z,1018.96
2023-08-13T02:22:50.087Z,1018.96
2023-08-13T02:23:50.195Z,1018.93
2023-08-13T02:24:50.395Z,1018.92
2023-08-13T02:25:50.552Z,1018.95
2023-08-13T02:26:50.787Z,1018.96
2023-08-13T02:27:50.935Z,1018.99
2023-08-13T02:28:51.128Z,1019.00
2023-08-13T02:29:51.308Z,1019.00
2023-08-13T02:30:51.484Z,1019.01
2023-08-13T02:31:51.629Z,1019.03
2023-08-13T02:32:51.833Z,1019.02
2023-08-13T02:33:51.997Z,1019.01
2023-08-13T02:34:52.191Z,1019.04
2023-08-13T02:35:52.341Z,1019.05
2023-08-13T02:36:52.483Z,1019.08
2023-08-13T02:37:52.644Z,1019.02
2023-08-13T02:38:52.857Z,1019.04
2023-08-13T02:39:53.016Z,1019.04
2023-08-13T02:40:53.183Z,1019.02
2023-08-13T02:41:53.368Z,1019.00
2023-08-13T02:42:53.537Z,1018.99
2023-08-13T02:43:53.743Z,1019.03
2023-08-13T02:44:53.863Z,1018.99
2023-08-13T02:45:54.060Z,1018.94
2023-08-13T02:46:54.217Z,1018.95
2023-08-13T02:47:54.456Z,1019.04
2023-08-13T02:48:54.591Z,1019.03
2023-08-13T02:49:54.731Z,1019.06
2023-08-13T02:50:54.900Z,1019.04
2023-08-13T02:51:55.054Z,1019.06
2023-08-13T02:52:55.313Z,1019.06
2023-08-13T02:53:55.422Z,1019.09
2023-08-13T02:54:55.618Z,1019.07
2023-08-13T02:55:55.782Z,1019.08
2023-08-13T02:56:55.956Z,1019.07
2023-08-13T02:58:09.640Z,1019.10
2023-08-13T02:58:57.298Z,1019.11
2023-08-13T02:59:56.484Z,1019.12
2023-08-13T03:00:56.634Z,1019.12
2023-08-13T03:01:56.871Z,1019.18
2023-08-13T03:02:57.133Z,1019.20
2023-08-13T03:03:57.300Z,1019.19
2023-08-13T03:04:57.361Z,1019.19
2023-08-13T03:05:57.584Z,1019.21
2023-08-13T03:06:57.748Z,1019.23
2023-08-13T03:07:57.884Z,1019.24
2023-08-13T03:08:58.050Z,1019.20
2023-08-13T03:09:58.243Z,1019.21
2023-08-13T03:10:58.437Z,1019.26
2023-08-13T03:11:58.589Z,1019.24
2023-08-13T03:12:58.743Z,1019.27
2023-08-13T03:13:58.959Z,1019.27
2023-08-13T03:14:59.152Z,1019.28
2023-08-13T03:15:59.379Z,1019.27
2023-08-13T03:16:59.497Z,1019.35
2023-08-13T03:17:59.718Z,1019.30
2023-08-13T03:18:59.824Z,1019.31
2023-08-13T03:20:00.019Z,1019.32
2023-08-13T03:21:00.195Z,1019.27
2023-08-13T03:22:00.343Z,1019.29
2023-08-13T03:23:00.512Z,1019.29
2023-08-13T03:24:00.706Z,1019.29
2023-08-13T03:25:00.923Z,1019.27
2023-08-13T03:26:01.127Z,1019.29
2023-08-13T03:27:01.210Z,1019.30
2023-08-13T03:28:01.371Z,1019.25
2023-08-13T03:29:01.571Z,1019.28
2023-08-13T03:30:01.742Z,1019.30
2023-08-13T03:31:01.927Z,1019.31
2023-08-13T03:32:02.070Z,1019.30
2023-08-13T03:33:02.251Z,1019.33
2023-08-13T03:34:02.373Z,1019.35
2023-08-13T03:35:02.560Z,1019.33
2023-08-13T03:36:02.750Z,1019.36
2023-08-13T03:37:02.913Z,1019.40
2023-08-13T03:38:03.076Z,1019.38
2023-08-13T03:39:03.242Z,1019.45
2023-08-13T03:40:03.441Z,1019.47
2023-08-13T03:41:03.623Z,1019.53
2023-08-13T03:42:03.815Z,1019.53
2023-08-13T03:43:03.896Z,1019.52
2023-08-13T03:44:04.100Z,1019.56
2023-08-13T03:45:04.318Z,1019.56
2023-08-13T03:46:04.490Z,1019.56
2023-08-13T03:47:04.600Z,1019.63
2023-08-13T03:48:04.793Z,1019.58
2023-08-13T03:49:04.999Z,1019.61
2023-08-13T03:50:05.121Z,1019.58
2023-08-13T03:51:05.321Z,1019.60
2023-08-13T03:52:05.516Z,1019.61
2023-08-13T03:53:05.675Z,1019.64
2023-08-13T03:54:09.989Z,1019.65
2023-08-13T03:55:06.013Z,1019.65
2023-08-13T03:56:06.177Z,1019.64
2023-08-13T03:57:06.475Z,1019.64
2023-08-13T03:58:06.541Z,1019.60
2023-08-13T03:59:06.694Z,1019.57
2023-08-13T04:00:06.851Z,1019.58
2023-08-13T04:01:07.077Z,1019.55
2023-08-13T04:02:07.325Z,1019.58
2023-08-13T04:03:20.046Z,1019.57
2023-08-13T04:04:08.652Z,1019.57
2023-08-13T04:05:07.756Z,1019.58
2023-08-13T04:06:07.939Z,1019.59
2023-08-13T04:07:08.121Z,1019.59
2023-08-13T04:08:08.287Z,1019.60
2023-08-13T04:09:08.434Z,1019.64
2023-08-13T04:10:08.625Z,1019.62
2023-08-13T04:11:08.795Z,1019.62
2023-08-13T04:12:09.010Z,1019.66
2023-08-13T04:13:09.154Z,1019.63
2023-08-13T04:14:09.372Z,1019.64
2023-08-13T04:15:09.473Z,1019.64
2023-08-13T04:16:09.785Z,1019.66
2023-08-13T04:17:09.857Z,1019.66
2023-08-13T04:18:10.004Z,1019.64
2023-08-13T04:19:10.170Z,1019.63
2023-08-13T04:20:10.737Z,1019.63
2023-08-13T04:21:10.552Z,1019.61
2023-08-13T04:22:10.741Z,1019.63
2023-08-13T04:23:10.895Z,1019.62
2023-08-13T04:24:11.083Z,1019.64
2023-08-13T04:25:11.220Z,1019.63
2023-08-13T04:26:11.433Z,1019.67
2023-08-13T04:27:11.584Z,1019.67
2023-08-13T04:28:11.741Z,1019.64
2023-08-13T04:29:11.922Z,1019.67
2023-08-13T04:30:12.089Z,1019.64
2023-08-13T04:31:12.326Z,1019.61
2023-08-13T04:32:12.713Z,1019.61
2023-08-13T04:33:12.616Z,1019.65
2023-08-13T04:34:12.786Z,1019.61
2023-08-13T04:35:12.980Z,1019.60
2023-08-13T04:36:13.181Z,1019.61
2023-08-13T04:37:13.330Z,1019.59
2023-08-13T04:38:13.558Z,1019.59
2023-08-13T04:39:13.690Z,1019.63
2023-08-13T04:40:13.880Z,1019.63
2023-08-13T04:41:14.048Z,1019.70
2023-08-13T04:42:14.400Z,1019.72
2023-08-13T04:43:14.406Z,1019.72
2023-08-13T04:44:14.607Z,1019.73
2023-08-13T04:45:14.775Z,1019.78
2023-08-13T04:46:14.935Z,1019.81
2023-08-13T04:47:15.112Z,1019.78
2023-08-13T04:48:15.306Z,1019.82
2023-08-13T04:49:15.560Z,1019.83
2023-08-13T04:50:15.631Z,1019.85
2023-08-13T04:51:15.797Z,1019.83
2023-08-13T04:52:16.287Z,1019.79
2023-08-13T04:53:16.143Z,1019.80
2023-08-13T04:54:16.334Z,1019.82
2023-08-13T04:55:16.480Z,1019.81
2023-08-13T04:56:16.703Z,1019.80
2023-08-13T04:57:16.855Z,1019.78
2023-08-13T04:58:17.030Z,1019.80
2023-08-13T04:59:17.170Z,1019.75
2023-08-13T05:00:17.387Z,1019.74
2023-08-13T05:01:17.594Z,1019.75
2023-08-13T05:02:17.715Z,1019.73
2023-08-13T05:03:17.941Z,1019.76
2023-08-13T05:04:18.082Z,1019.74
2023-08-13T05:05:18.293Z,1019.69
2023-08-13T05:06:18.413Z,1019.69
2023-08-13T05:07:18.583Z,1019.72
2023-08-13T05:08:18.751Z,1019.71
2023-08-13T05:09:18.917Z,1019.75
2023-08-13T05:10:19.104Z,1019.72
2023-08-13T05:11:19.353Z,1019.74
2023-08-13T05:12:19.477Z,1019.78
2023-08-13T05:13:19.676Z,1019.78
2023-08-13T05:14:19.836Z,1019.75
2023-08-13T05:15:20.023Z,1019.74
2023-08-13T05:16:20.190Z,1019.75
2023-08-13T05:17:20.406Z,1019.78
2023-08-13T05:18:20.566Z,1019.77
2023-08-13T05:19:20.746Z,1019.75
2023-08-13T05:20:20.927Z,1019.76
2023-08-13T05:21:21.068Z,1019.77
2023-08-13T05:22:21.253Z,1019.75
2023-08-13T05:23:21.401Z,1019.74
2023-08-13T05:24:21.664Z,1019.79
2023-08-13T05:25:21.743Z,1019.77
2023-08-13T05:26:21.944Z,1019.80
2023-08-13T05:27:22.094Z,1019.85
2023-08-13T05:28:22.266Z,1019.79
2023-08-13T05:29:22.430Z,1019.79
2023-08-13T05:30:22.626Z,1019.78
2023-08-13T05:31:22.808Z,1019.77
2023-08-13T05:32:22.985Z,1019.78
2023-08-13T05:33:23.106Z,1019.77
2023-08-13T05:34:23.310Z,1019.82
2023-08-13T05:35:23.977Z,1019.80
2023-08-13T05:36:23.667Z,1019.80
2023-08-13T05:37:23.956Z,1019.82
2023-08-13T05:38:24.004Z,1019.81
2023-08-13T05:39:24.172Z,1019.86
2023-08-13T05:40:24.382Z,1019.84
2023-08-13T05:41:24.510Z,1019.83
2023-08-13T05:42:24.698Z,1019.85
2023-08-13T05:43:24.860Z,1019.83
2023-08-13T05:44:25.028Z,1019.83
2023-08-13T05:45:25.265Z,1019.83
2023-08-13T05:46:25.439Z,1019.80
2023-08-13T05:47:25.523Z,1019.76
2023-08-13T05:48:25.699Z,1019.78
2023-08-13T05:49:25.892Z,1019.80
2023-08-13T05:50:26.050Z,1019.82
2023-08-13T05:51:26.202Z,1019.84
2023-08-13T05:52:26.408Z,1019.84
2023-08-13T05:53:26.549Z,1019.84
2023-08-13T05:54:26.739Z,1019.80
2023-08-13T05:55:26.871Z,1019.78
2023-08-13T05:56:27.062Z,1019.85
2023-08-13T05:57:27.248Z,1019.80
2023-08-13T05:58:27.426Z,1019.78
2023-08-13T05:59:27.683Z,1019.79
2023-08-13T06:00:27.835Z,1019.86
2023-08-13T06:01:28.009Z,1019.84
2023-08-13T06:02:28.171Z,1019.86
2023-08-13T06:03:28.415Z,1019.87
2023-08-13T06:04:28.472Z,1019.89
2023-08-13T06:05:28.620Z,1019.85
2023-08-13T06:06:28.793Z,1019.85
2023-08-13T06:07:28.971Z,1019.87
2023-08-13T06:08:29.171Z,1019.92
2023-08-13T06:09:29.316Z,1019.94
2023-08-13T06:10:29.515Z,1019.88
2023-08-13T06:11:29.636Z,1019.85
2023-08-13T06:12:29.827Z,1019.88
2023-08-13T06:13:30.045Z,1019.86
2023-08-13T06:14:30.187Z,1019.87
2023-08-13T06:15:30.356Z,1019.89
2023-08-13T06:16:30.580Z,1019.90
2023-08-13T06:17:30.770Z,1019.90
2023-08-13T06:18:30.887Z,1019.96
2023-08-13T06:19:31.024Z,1019.90
2023-08-13T06:20:31.216Z,1019.99
2023-08-13T06:21:31.374Z,1019.97
2023-08-13T06:22:31.629Z,1019.95
2023-08-13T06:23:31.743Z,1019.99
2023-08-13T06:24:31.886Z,1019.93
2023-08-13T06:25:32.103Z,1019.99
2023-08-13T06:26:32.267Z,1019.94
2023-08-13T06:27:32.420Z,1019.90
2023-08-13T06:28:32.613Z,1019.97
2023-08-13T06:29:32.796Z,1019.94
2023-08-13T06:30:32.981Z,1019.81
2023-08-13T06:31:42.241Z,1019.88
2023-08-13T06:32:34.359Z,1019.89
2023-08-13T06:33:33.505Z,1019.89
2023-08-13T06:34:33.703Z,1019.88
2023-08-13T06:35:33.866Z,1019.85
2023-08-13T06:36:34.047Z,1019.86
2023-08-13T06:37:38.965Z,1019.87
2023-08-13T06:38:35.354Z,1019.85
2023-08-13T06:39:34.525Z,1019.82
2023-08-13T06:40:34.732Z,1019.75
2023-08-13T06:41:34.918Z,1019.75
2023-08-13T06:42:35.059Z,1019.76
2023-08-13T06:43:35.240Z,1019.78
2023-08-13T06:44:35.434Z,1019.80
2023-08-13T06:45:35.644Z,1019.75
2023-08-13T06:46:35.850Z,1019.77
2023-08-13T06:47:36.020Z,1019.69
2023-08-13T06:48:36.107Z,1019.76
2023-08-13T06:49:36.304Z,1019.75
2023-08-13T06:50:36.513Z,1019.79
2023-08-13T06:51:36.654Z,1019.72
2023-08-13T06:52:36.824Z,1019.78
2023-08-13T06:53:36.983Z,1019.75
2023-08-13T06:54:37.184Z,1019.76
2023-08-13T06:55:37.414Z,1019.76
2023-08-13T06:56:37.530Z,1019.76
2023-08-13T06:57:37.688Z,1019.73
2023-08-13T06:58:37.913Z,1019.73
2023-08-13T06:59:38.084Z,1019.78
2023-08-13T07:00:40.388Z,1019.79
2023-08-13T07:01:38.500Z,1019.77
2023-08-13T07:02:38.634Z,1019.84
2023-08-13T07:03:38.787Z,1019.76
2023-08-13T07:04:39.081Z,1019.82
2023-08-13T07:05:39.121Z,1019.78
2023-08-13T07:06:39.306Z,1019.77
2023-08-13T07:07:39.494Z,1019.75
2023-08-13T07:08:39.659Z,1019.74
2023-08-13T07:09:39.871Z,1019.77
2023-08-13T07:10:40.126Z,1019.77
2023-08-13T07:11:40.213Z,1019.78
2023-08-13T07:12:40.431Z,1019.77
2023-08-13T07:13:40.591Z,1019.77
2023-08-13T07:14:40.744Z,1019.77
2023-08-13T07:15:40.903Z,1019.74
2023-08-13T07:16:41.093Z,1019.70
2023-08-13T07:17:41.299Z,1019.71
2023-08-13T07:18:41.466Z,1019.75
2023-08-13T07:19:41.611Z,1019.75
2023-08-13T07:20:41.771Z,1019.75
2023-08-13T07:21:41.952Z,1019.74
2023-08-13T07:22:42.164Z,1019.70
2023-08-13T07:23:42.346Z,1019.67
2023-08-13T07:24:42.502Z,1019.67
2023-08-13T07:25:42.705Z,1019.67
2023-08-13T07:26:42.865Z,1019.65
2023-08-13T07:27:43.096Z,1019.62
2023-08-13T07:28:43.222Z,1019.68
2023-08-13T07:29:43.392Z,1019.63
2023-08-13T07:30:43.565Z,1019.62
2023-08-13T07:31:43.804Z,1019.61
2023-08-13T07:32:44.153Z,1019.65
2023-08-13T07:33:44.104Z,1019.70
2023-08-13T07:34:44.283Z,1019.65
2023-08-13T07:35:44.463Z,1019.65
2023-08-13T07:36:44.647Z,1019.59
2023-08-13T07:37:44.840Z,1019.65
2023-08-13T07:38:44.984Z,1019.64
2023-08-13T07:39:45.281Z,1019.61
2023-08-13T07:40:45.317Z,1019.61
2023-08-13T07:41:45.543Z,1019.62
2023-08-13T07:42:45.707Z,1019.59
2023-08-13T07:43:45.965Z,1019.58
2023-08-13T07:44:46.016Z,1019.56
2023-08-13T07:45:46.231Z,1019.53
2023-08-13T07:46:46.389Z,1019.55
2023-08-13T07:47:46.599Z,1019.60
2023-08-13T07:48:46.744Z,1019.61
2023-08-13T07:49:46.933Z,1019.60
2023-08-13T07:50:47.116Z,1019.59
2023-08-13T07:51:47.315Z,1019.63
2023-08-13T07:52:47.450Z,1019.58
2023-08-13T07:53:47.648Z,1019.64
2023-08-13T07:54:47.822Z,1019.65
2023-08-13T07:55:48.065Z,1019.69
2023-08-13T07:56:48.180Z,1019.70
2023-08-13T07:57:48.371Z,1019.70
2023-08-13T07:58:48.537Z,1019.70
2023-08-13T07:59:48.724Z,1019.73
2023-08-13T08:00:48.883Z,1019.66
2023-08-13T08:01:49.039Z,1019.72
2023-08-13T08:02:49.279Z,1019.73
2023-08-13T08:03:49.440Z,1019.70
2023-08-13T08:04:49.628Z,1019.68
2023-08-13T08:05:49.774Z,1019.73
2023-08-13T08:06:49.951Z,1019.69
2023-08-13T08:07:50.157Z,1019.66
2023-08-13T08:08:50.308Z,1019.70
2023-08-13T08:09:50.506Z,1019.69
2023-08-13T08:10:50.650Z,1019.61
2023-08-13T08:11:50.823Z,1019.63
2023-08-13T08:12:51.008Z,1019.68
2023-08-13T08:13:51.238Z,1019.66
2023-08-13T08:14:51.435Z,1019.62
2023-08-13T08:15:51.561Z,1019.59
2023-08-13T08:16:51.712Z,1019.61
2023-08-13T08:17:51.937Z,1019.62
2023-08-13T08:18:52.081Z,1019.63
2023-08-13T08:19:52.227Z,1019.61
2023-08-13T08:20:52.401Z,1019.60
2023-08-13T08:21:52.597Z,1019.60
2023-08-13T08:22:52.765Z,1019.57
2023-08-13T08:23:52.954Z,1019.55
2023-08-13T08:24:53.094Z,1019.53
2023-08-13T08:25:53.286Z,1019.56
2023-08-13T08:26:53.469Z,1019.57
2023-08-13T08:27:53.660Z,1019.48
2023-08-13T08:28:53.841Z,1019.47
2023-08-13T08:29:54.025Z,1019.50
2023-08-13T08:30:54.186Z,1019.45
2023-08-13T08:31:54.371Z,1019.46
2023-08-13T08:32:54.626Z,1019.39
2023-08-13T08:33:54.716Z,1019.39
2023-08-13T08:34:54.888Z,1019.39
2023-08-13T08:35:55.071Z,1019.41
2023-08-13T08:36:55.240Z,1019.39
2023-08-13T08:37:55.442Z,1019.37
2023-08-13T08:38:55.689Z,1019.35
2023-08-13T08:39:55.789Z,1019.35
2023-08-13T08:40:55.951Z,1019.33
2023-08-13T08:41:56.173Z,1019.35
2023-08-13T08:42:56.343Z,1019.35
2023-08-13T08:43:56.483Z,1019.37
2023-08-13T08:44:56.666Z,1019.39
2023-08-13T08:45:56.881Z,1019.34
2023-08-13T08:46:57.121Z,1019.37
2023-08-13T08:47:57.221Z,1019.30
2023-08-13T08:48:57.349Z,1019.32
2023-08-13T08:49:57.534Z,1019.34
2023-08-13T08:50:57.705Z,1019.36
2023-08-13T08:51:57.890Z,1019.30
2023-08-13T08:52:58.047Z,1019.26
2023-08-13T08:53:58.226Z,1019.24
2023-08-13T08:54:58.409Z,1019.16
2023-08-13T08:55:58.608Z,1019.17
2023-08-13T08:56:58.789Z,1019.17
2023-08-13T08:57:58.939Z,1019.17
2023-08-13T08:58:59.111Z,1019.18
2023-08-13T08:59:59.288Z,1019.18
2023-08-13T09:00:59.635Z,1019.17
2023-08-13T09:01:59.691Z,1019.13
2023-08-13T09:03:00.391Z,1019.12
2023-08-13T09:04:00.064Z,1019.17
2023-08-13T09:05:00.210Z,1019.16
2023-08-13T09:06:11.627Z,1019.14
2023-08-13T09:07:01.523Z,1019.13
2023-08-13T09:08:00.710Z,1019.15
2023-08-13T09:09:00.912Z,1019.14
2023-08-13T09:10:01.079Z,1019.11
2023-08-13T09:11:01.224Z,1019.09
2023-08-13T09:12:01.415Z,1019.15
2023-08-13T09:13:01.616Z,1019.08
2023-08-13T09:14:01.774Z,1019.11
2023-08-13T09:15:01.983Z,1019.09
2023-08-13T09:16:02.151Z,1019.11
2023-08-13T09:17:02.333Z,1019.03
2023-08-13T09:18:02.526Z,1019.04
2023-08-13T09:19:13.056Z,1019.03
2023-08-13T09:20:03.897Z,1019.04
2023-08-13T09:21:03.055Z,1019.05
2023-08-13T09:22:03.245Z,1018.99
2023-08-13T09:23:03.409Z,1018.98
2023-08-13T09:24:03.598Z,1018.96
2023-08-13T09:25:03.751Z,1019.00
2023-08-13T09:26:03.991Z,1018.94
2023-08-13T09:27:04.123Z,1018.90
2023-08-13T09:28:04.328Z,1018.91
2023-08-13T09:29:04.481Z,1018.94
2023-08-13T09:30:04.725Z,1018.88
2023-08-13T09:31:04.867Z,1018.91
2023-08-13T09:32:05.035Z,1018.84
2023-08-13T09:33:05.293Z,1018.87
2023-08-13T09:34:05.367Z,1018.87
2023-08-13T09:35:05.554Z,1018.84
2023-08-13T09:36:05.723Z,1018.83
2023-08-13T09:37:05.893Z,1018.80
2023-08-13T09:38:06.085Z,1018.76
2023-08-13T09:39:06.238Z,1018.74
2023-08-13T09:40:06.425Z,1018.74
2023-08-13T09:41:06.600Z,1018.74
2023-08-13T09:42:06.837Z,1018.73
2023-08-13T09:43:06.989Z,1018.71
2023-08-13T09:44:07.131Z,1018.69
2023-08-13T09:45:07.314Z,1018.72
2023-08-13T09:46:08.502Z,1018.75
2023-08-13T09:47:07.666Z,1018.72
2023-08-13T09:48:07.890Z,1018.74
2023-08-13T09:49:08.000Z,1018.75
2023-08-13T09:50:08.178Z,1018.77
2023-08-13T09:51:08.379Z,1018.75
2023-08-13T09:52:08.555Z,1018.74
2023-08-13T09:53:08.698Z,1018.65
2023-08-13T09:54:08.880Z,1018.69
2023-08-13T09:55:09.052Z,1018.67
2023-08-13T09:56:09.363Z,1018.63
2023-08-13T09:57:09.426Z,1018.65
2023-08-13T09:58:09.672Z,1018.66
2023-08-13T09:59:09.761Z,1018.62
2023-08-13T10:00:10.039Z,1018.65
2023-08-13T10:01:10.146Z,1018.64
2023-08-13T10:02:10.304Z,1018.66
2023-08-13T10:03:11.964Z,1018.69
2023-08-13T10:04:10.696Z,1018.73
2023-08-13T10:05:10.825Z,1018.71
2023-08-13T10:06:10.997Z,1018.73
2023-08-13T10:07:11.149Z,1018.68
2023-08-13T10:08:11.327Z,1018.68
2023-08-13T10:09:11.479Z,1018.71
2023-08-13T10:10:11.692Z,1018.77
2023-08-13T10:11:11.876Z,1018.68
2023-08-13T10:12:12.062Z,1018.70
2023-08-13T10:13:12.193Z,1018.71
2023-08-13T10:14:12.367Z,1018.73
2023-08-13T10:15:12.572Z,1018.74
2023-08-13T10:16:12.763Z,1018.76
2023-08-13T10:17:12.868Z,1018.74
2023-08-13T10:18:13.067Z,1018.86
2023-08-13T10:19:13.332Z,1018.83
2023-08-13T10:20:13.489Z,1018.82
2023-08-13T10:21:13.592Z,1018.76
2023-08-13T10:22:16.786Z,1018.80
2023-08-13T10:23:13.972Z,1018.81
2023-08-13T10:24:14.126Z,1018.84
2023-08-13T10:25:14.308Z,1018.92
2023-08-13T10:26:14.467Z,1018.99
2023-08-13T10:27:14.717Z,1019.04
2023-08-13T10:28:14.821Z,1019.02
2023-08-13T10:29:14.989Z,1018.84
2023-08-13T10:30:15.162Z,1018.80
2023-08-13T10:31:15.359Z,1018.87
2023-08-13T10:32:15.779Z,1018.89
2023-08-13T10:33:15.679Z,1018.82
2023-08-13T10:34:15.891Z,1018.84
2023-08-13T10:35:16.006Z,1018.81
2023-08-13T10:36:16.199Z,1018.85
2023-08-13T10:37:16.401Z,1018.88
2023-08-13T10:38:16.575Z,1018.87
2023-08-13T10:39:16.740Z,1018.87
2023-08-13T10:40:16.886Z,1018.84
2023-08-13T10:41:17.078Z,1018.85
2023-08-13T10:42:17.503Z,1018.94
2023-08-13T10:43:17.467Z,1018.96
2023-08-13T10:44:17.623Z,1018.96
2023-08-13T10:45:17.783Z,1018.98
2023-08-13T10:46:17.990Z,1018.97
2023-08-13T10:47:18.176Z,1018.92
2023-08-13T10:48:18.366Z,1018.91
2023-08-13T10:49:18.605Z,1018.96
2023-08-13T10:50:18.798Z,1018.98
2023-08-13T10:51:18.876Z,1018.97
2023-08-13T10:52:19.084Z,1018.95
2023-08-13T10:53:19.267Z,1018.91
2023-08-13T10:54:19.424Z,1018.89
2023-08-13T10:55:19.669Z,1018.93
2023-08-13T10:56:19.789Z,1018.93
2023-08-13T10:57:19.971Z,1018.97
2023-08-13T10:58:20.128Z,1018.94
2023-08-13T10:59:20.336Z,1018.93
2023-08-13T11:00:20.528Z,1018.97
2023-08-13T11:01:20.735Z,1018.97
2023-08-13T11:02:23.156Z,1018.91
2023-08-13T11:03:21.198Z,1018.99
2023-08-13T11:04:21.193Z,1018.99
2023-08-13T11:05:21.348Z,1018.92
2023-08-13T11:06:21.557Z,1018.89
2023-08-13T11:07:21.693Z,1018.90
2023-08-13T11:08:37.333Z,1018.99
2023-08-13T11:09:23.023Z,1018.92
2023-08-13T11:10:22.179Z,1018.92
2023-08-13T11:11:22.349Z,1018.91
2023-08-13T11:12:22.511Z,1018.87
2023-08-13T11:13:22.712Z,1018.90
2023-08-13T11:14:22.874Z,1018.93
2023-08-13T11:15:23.084Z,1018.93
2023-08-13T11:16:23.349Z,1018.91
2023-08-13T11:17:23.441Z,1018.92
2023-08-13T11:18:23.544Z,1018.91
2023-08-13T11:19:23.756Z,1018.89
2023-08-13T11:20:23.936Z,1018.86
2023-08-13T11:21:24.089Z,1018.88
2023-08-13T11:22:24.286Z,1018.91
2023-08-13T11:23:24.532Z,1018.89
2023-08-13T11:24:24.609Z,1018.88
2023-08-13T11:25:24.791Z,1018.84
2023-08-13T11:26:24.971Z,1018.85
2023-08-13T11:27:25.124Z,1018.85
2023-08-13T11:28:25.286Z,1018.82
2023-08-13T11:29:25.521Z,1018.77
2023-08-13T11:30:25.646Z,1018.75
2023-08-13T11:31:25.781Z,1018.82
2023-08-13T11:32:25.986Z,1018.78
2023-08-13T11:33:26.586Z,1018.76
2023-08-13T11:34:26.406Z,1018.73
2023-08-13T11:35:26.474Z,1018.71
2023-08-13T11:36:26.667Z,1018.71
2023-08-13T11:37:26.830Z,1018.74
2023-08-13T11:38:27.023Z,1018.70
2023-08-13T11:39:27.243Z,1018.70
2023-08-13T11:40:27.364Z,1018.69
2023-08-13T11:41:27.576Z,1018.68
2023-08-13T11:42:27.710Z,1018.67
2023-08-13T11:43:27.920Z,1018.68
2023-08-13T11:44:28.081Z,1018.58
2023-08-13T11:45:28.287Z,1018.60
2023-08-13T11:46:28.402Z,1018.63
2023-08-13T11:47:28.601Z,1018.65
2023-08-13T11:48:28.896Z,1018.66
2023-08-13T11:49:28.941Z,1018.65
2023-08-13T11:50:29.093Z,1018.68
2023-08-13T11:51:29.261Z,1018.64
2023-08-13T11:52:29.471Z,1018.62
2023-08-13T11:53:30.128Z,1018.61
2023-08-13T11:54:29.791Z,1018.60
2023-08-13T11:55:29.974Z,1018.63
2023-08-13T11:56:30.150Z,1018.62
2023-08-13T11:57:30.341Z,1018.62
2023-08-13T11:58:30.517Z,1018.63
2023-08-13T11:59:30.660Z,1018.53
2023-08-13T12:00:30.856Z,1018.57
2023-08-13T12:01:31.106Z,1018.53
2023-08-13T12:02:31.274Z,1018.54
2023-08-13T12:03:31.474Z,1018.56
2023-08-13T12:04:37.349Z,1018.56
2023-08-13T12:05:32.793Z,1018.58
2023-08-13T12:06:32.006Z,1018.54
2023-08-13T12:07:32.079Z,1018.56